sensor_id;sensor_type;location;lat;lon;timestamp;temperature;humidity
66140;DHT22;52945;51.908;8.364;2023-01-30T00:02:53;5.10;75.10
66140;DHT22;52945;51.908;8.364;2023-01-30T00:05:54;5.10;75.00
66140;DHT22;52945;51.908;8.364;2023-01-30T00:08:54;5.20;75.10
66140;DHT22;52945;51.908;8.364;2023-01-30T00:11:55;5.10;75.20
66140;DHT22;52945;51.908;8.364;2023-01-30T00:14:55;5.10;75.30
66140;DHT22;52945;51.908;8.364;2023-01-30T00:17:56;5.10;75.40
66140;DHT22;52945;51.908;8.364;2023-01-30T00:21:02;5.20;75.40
66140;DHT22;52945;51.908;8.364;2023-01-30T00:24:03;5.20;75.50
66140;DHT22;52945;51.908;8.364;2023-01-30T00:27:03;5.30;75.40
66140;DHT22;52945;51.908;8.364;2023-01-30T00:30:04;5.30;75.40
66140;DHT22;52945;51.908;8.364;2023-01-30T00:33:06;5.30;75.50
66140;DHT22;52945;51.908;8.364;2023-01-30T00:36:08;5.30;75.40
66140;DHT22;52945;51.908;8.364;2023-01-30T00:39:09;5.30;75.60
66140;DHT22;52945;51.908;8.364;2023-01-30T00:42:10;5.30;75.70
66140;DHT22;52945;51.908;8.364;2023-01-30T00:45:29;5.30;75.50
66140;DHT22;52945;51.908;8.364;2023-01-30T00:48:49;5.40;75.50
66140;DHT22;52945;51.908;8.364;2023-01-30T00:51:49;5.40;75.60
66140;DHT22;52945;51.908;8.364;2023-01-30T00:54:51;5.40;75.60
66140;DHT22;52945;51.908;8.364;2023-01-30T00:57:51;5.50;75.50
66140;DHT22;52945;51.908;8.364;2023-01-30T01:00:52;5.40;75.60
66140;DHT22;52945;51.908;8.364;2023-01-30T01:03:53;5.50;75.70
66140;DHT22;52945;51.908;8.364;2023-01-30T01:06:53;5.50;75.90
66140;DHT22;52945;51.908;8.364;2023-01-30T01:09:54;5.50;75.80
66140;DHT22;52945;51.908;8.364;2023-01-30T01:12:54;5.60;75.90
66140;DHT22;52945;51.908;8.364;2023-01-30T01:15:55;5.50;76.00
66140;DHT22;52945;51.908;8.364;2023-01-30T01:18:56;5.60;75.90
66140;DHT22;52945;51.908;8.364;2023-01-30T01:21:57;5.60;75.80
66140;DHT22;52945;51.908;8.364;2023-01-30T01:24:57;5.60;76.00
66140;DHT22;52945;51.908;8.364;2023-01-30T01:27:58;5.70;76.20
66140;DHT22;52945;51.908;8.364;2023-01-30T01:30:58;5.70;76.30
66140;DHT22;52945;51.908;8.364;2023-01-30T01:33:59;5.60;76.40
66140;DHT22;52945;51.908;8.364;2023-01-30T01:36:59;5.70;76.40
66140;DHT22;52945;51.908;8.364;2023-01-30T01:40:00;5.70;76.50
66140;DHT22;52945;51.908;8.364;2023-01-30T01:43:22;5.70;76.60
66140;DHT22;52945;51.908;8.364;2023-01-30T01:46:25;5.70;76.90
66140;DHT22;52945;51.908;8.364;2023-01-30T01:49:30;5.70;76.90
66140;DHT22;52945;51.908;8.364;2023-01-30T01:52:31;5.70;77.30
66140;DHT22;52945;51.908;8.364;2023-01-30T01:55:32;5.80;77.30
66140;DHT22;52945;51.908;8.364;2023-01-30T01:58:39;5.70;77.20
66140;DHT22;52945;51.908;8.364;2023-01-30T02:01:41;5.80;77.30
66140;DHT22;52945;51.908;8.364;2023-01-30T02:04:46;5.80;77.40
66140;DHT22;52945;51.908;8.364;2023-01-30T02:08:13;5.80;77.40
66140;DHT22;52945;51.908;8.364;2023-01-30T02:11:41;5.80;78.10
66140;DHT22;52945;51.908;8.364;2023-01-30T02:14:43;5.90;78.00
66140;DHT22;52945;51.908;8.364;2023-01-30T02:17:44;5.90;78.20
66140;DHT22;52945;51.908;8.364;2023-01-30T02:34:40;6.10;78.40
66140;DHT22;52945;51.908;8.364;2023-01-30T02:41:21;6.10;78.60
66140;DHT22;52945;51.908;8.364;2023-01-30T02:48:05;6.10;78.90
66140;DHT22;52945;51.908;8.364;2023-01-30T02:51:17;6.10;79.10
66140;DHT22;52945;51.908;8.364;2023-01-30T02:54:18;6.20;79.10
66140;DHT22;52945;51.908;8.364;2023-01-30T02:57:21;6.10;79.50
66140;DHT22;52945;51.908;8.364;2023-01-30T03:01:01;6.20;79.40
66140;DHT22;52945;51.908;8.364;2023-01-30T03:10:57;6.30;79.30
66140;DHT22;52945;51.908;8.364;2023-01-30T03:15:40;6.10;79.60
66140;DHT22;52945;51.908;8.364;2023-01-30T03:18:43;6.30;79.90
66140;DHT22;52945;51.908;8.364;2023-01-30T03:21:44;6.40;80.00
66140;DHT22;52945;51.908;8.364;2023-01-30T03:24:45;6.50;79.70
66140;DHT22;52945;51.908;8.364;2023-01-30T03:27:46;6.60;79.60
66140;DHT22;52945;51.908;8.364;2023-01-30T03:30:47;6.40;79.90
66140;DHT22;52945;51.908;8.364;2023-01-30T03:33:48;6.50;79.90
66140;DHT22;52945;51.908;8.364;2023-01-30T03:36:48;6.50;80.10
66140;DHT22;52945;51.908;8.364;2023-01-30T03:39:49;6.50;80.30
66140;DHT22;52945;51.908;8.364;2023-01-30T03:42:50;6.50;80.10
66140;DHT22;52945;51.908;8.364;2023-01-30T03:45:50;6.50;80.40
66140;DHT22;52945;51.908;8.364;2023-01-30T03:48:51;6.40;80.50
66140;DHT22;52945;51.908;8.364;2023-01-30T03:51:51;6.50;80.60
66140;DHT22;52945;51.908;8.364;2023-01-30T03:54:52;6.60;80.60
66140;DHT22;52945;51.908;8.364;2023-01-30T03:57:56;6.60;80.40
66140;DHT22;52945;51.908;8.364;2023-01-30T04:00:57;6.60;80.40
66140;DHT22;52945;51.908;8.364;2023-01-30T04:03:57;6.50;80.80
66140;DHT22;52945;51.908;8.364;2023-01-30T04:06:58;6.60;80.60
66140;DHT22;52945;51.908;8.364;2023-01-30T04:09:58;6.60;80.80
66140;DHT22;52945;51.908;8.364;2023-01-30T04:12:59;6.60;80.80
66140;DHT22;52945;51.908;8.364;2023-01-30T04:16:20;6.60;81.10
66140;DHT22;52945;51.908;8.364;2023-01-30T04:19:21;6.60;80.80
66140;DHT22;52945;51.908;8.364;2023-01-30T04:22:22;6.60;80.70
66140;DHT22;52945;51.908;8.364;2023-01-30T04:25:22;6.60;80.90
66140;DHT22;52945;51.908;8.364;2023-01-30T04:28:23;6.60;80.90
66140;DHT22;52945;51.908;8.364;2023-01-30T04:31:23;6.70;81.00
66140;DHT22;52945;51.908;8.364;2023-01-30T04:34:24;6.70;81.00
66140;DHT22;52945;51.908;8.364;2023-01-30T04:37:25;6.70;80.80
66140;DHT22;52945;51.908;8.364;2023-01-30T04:40:25;6.80;80.80
66140;DHT22;52945;51.908;8.364;2023-01-30T04:43:27;6.80;80.90
66140;DHT22;52945;51.908;8.364;2023-01-30T04:46:27;6.80;80.70
66140;DHT22;52945;51.908;8.364;2023-01-30T04:49:28;6.80;80.60
66140;DHT22;52945;51.908;8.364;2023-01-30T04:52:28;6.80;81.10
66140;DHT22;52945;51.908;8.364;2023-01-30T04:55:29;6.80;81.20
66140;DHT22;52945;51.908;8.364;2023-01-30T04:58:30;6.90;80.90
66140;DHT22;52945;51.908;8.364;2023-01-30T05:01:36;7.00;80.80
66140;DHT22;52945;51.908;8.364;2023-01-30T05:04:37;7.00;80.70
66140;DHT22;52945;51.908;8.364;2023-01-30T05:07:38;7.00;81.00
66140;DHT22;52945;51.908;8.364;2023-01-30T05:10:38;7.00;80.80
66140;DHT22;52945;51.908;8.364;2023-01-30T05:13:39;7.10;80.90
66140;DHT22;52945;51.908;8.364;2023-01-30T05:16:39;7.10;81.20
66140;DHT22;52945;51.908;8.364;2023-01-30T05:19:40;7.10;81.00
66140;DHT22;52945;51.908;8.364;2023-01-30T05:22:41;7.20;81.00
66140;DHT22;52945;51.908;8.364;2023-01-30T05:25:41;7.10;81.30
66140;DHT22;52945;51.908;8.364;2023-01-30T05:28:42;7.20;81.30
66140;DHT22;52945;51.908;8.364;2023-01-30T05:31:43;7.20;81.20
66140;DHT22;52945;51.908;8.364;2023-01-30T05:34:43;7.20;81.10
66140;DHT22;52945;51.908;8.364;2023-01-30T05:37:49;7.30;81.00
66140;DHT22;52945;51.908;8.364;2023-01-30T05:41:02;7.20;81.10
66140;DHT22;52945;51.908;8.364;2023-01-30T05:44:04;7.30;81.20
66140;DHT22;52945;51.908;8.364;2023-01-30T05:47:04;7.30;81.10
66140;DHT22;52945;51.908;8.364;2023-01-30T05:50:05;7.30;81.00
66140;DHT22;52945;51.908;8.364;2023-01-30T05:53:06;7.30;81.10
66140;DHT22;52945;51.908;8.364;2023-01-30T05:56:07;7.30;81.50
66140;DHT22;52945;51.908;8.364;2023-01-30T05:59:10;7.40;81.50
66140;DHT22;52945;51.908;8.364;2023-01-30T06:02:11;7.40;81.30
66140;DHT22;52945;51.908;8.364;2023-01-30T06:05:11;7.50;81.10
66140;DHT22;52945;51.908;8.364;2023-01-30T06:08:12;7.50;81.20
66140;DHT22;52945;51.908;8.364;2023-01-30T06:11:15;7.50;81.20
66140;DHT22;52945;51.908;8.364;2023-01-30T06:14:16;7.50;81.30
66140;DHT22;52945;51.908;8.364;2023-01-30T06:17:16;7.50;81.30
66140;DHT22;52945;51.908;8.364;2023-01-30T06:20:17;7.60;81.20
66140;DHT22;52945;51.908;8.364;2023-01-30T06:23:18;7.60;81.20
66140;DHT22;52945;51.908;8.364;2023-01-30T06:26:19;7.60;81.30
66140;DHT22;52945;51.908;8.364;2023-01-30T06:29:20;7.60;81.30
66140;DHT22;52945;51.908;8.364;2023-01-30T06:32:20;7.60;81.20
66140;DHT22;52945;51.908;8.364;2023-01-30T06:35:21;7.60;81.20
66140;DHT22;52945;51.908;8.364;2023-01-30T06:38:21;7.70;81.10
66140;DHT22;52945;51.908;8.364;2023-01-30T06:41:22;7.70;80.90
66140;DHT22;52945;51.908;8.364;2023-01-30T06:44:22;7.50;81.10
66140;DHT22;52945;51.908;8.364;2023-01-30T06:47:23;7.60;81.10
66140;DHT22;52945;51.908;8.364;2023-01-30T06:50:26;7.60;81.00
66140;DHT22;52945;51.908;8.364;2023-01-30T06:53:27;7.60;80.90
66140;DHT22;52945;51.908;8.364;2023-01-30T06:56:30;7.70;80.80
66140;DHT22;52945;51.908;8.364;2023-01-30T06:59:30;7.60;80.70
66140;DHT22;52945;51.908;8.364;2023-01-30T07:02:31;7.70;80.80
66140;DHT22;52945;51.908;8.364;2023-01-30T07:05:37;7.70;80.70
66140;DHT22;52945;51.908;8.364;2023-01-30T07:08:37;7.60;80.80
66140;DHT22;52945;51.908;8.364;2023-01-30T07:11:40;7.60;80.90
66140;DHT22;52945;51.908;8.364;2023-01-30T07:14:40;7.60;80.60
66140;DHT22;52945;51.908;8.364;2023-01-30T07:17:41;7.70;80.60
66140;DHT22;52945;51.908;8.364;2023-01-30T07:20:46;7.60;80.40
66140;DHT22;52945;51.908;8.364;2023-01-30T07:23:46;7.60;80.10
66140;DHT22;52945;51.908;8.364;2023-01-30T07:26:47;7.60;80.00
66140;DHT22;52945;51.908;8.364;2023-01-30T07:29:48;7.60;79.90
66140;DHT22;52945;51.908;8.364;2023-01-30T07:32:53;7.70;79.50
66140;DHT22;52945;51.908;8.364;2023-01-30T07:35:54;7.70;79.30
66140;DHT22;52945;51.908;8.364;2023-01-30T07:38:55;7.60;79.00
66140;DHT22;52945;51.908;8.364;2023-01-30T07:41:56;7.60;78.70
66140;DHT22;52945;51.908;8.364;2023-01-30T07:44:56;7.50;78.60
66140;DHT22;52945;51.908;8.364;2023-01-30T07:47:57;7.50;78.30
66140;DHT22;52945;51.908;8.364;2023-01-30T07:50:57;7.50;78.50
66140;DHT22;52945;51.908;8.364;2023-01-30T07:53:58;7.50;78.40
66140;DHT22;52945;51.908;8.364;2023-01-30T07:57:00;7.50;78.40
66140;DHT22;52945;51.908;8.364;2023-01-30T08:00:01;7.40;78.30
66140;DHT22;52945;51.908;8.364;2023-01-30T08:03:01;7.30;78.20
66140;DHT22;52945;51.908;8.364;2023-01-30T08:06:02;7.30;78.20
66140;DHT22;52945;51.908;8.364;2023-01-30T08:09:03;7.30;78.20
66140;DHT22;52945;51.908;8.364;2023-01-30T08:12:03;7.30;78.30
66140;DHT22;52945;51.908;8.364;2023-01-30T08:15:05;7.30;78.20
66140;DHT22;52945;51.908;8.364;2023-01-30T08:18:06;7.30;78.30
66140;DHT22;52945;51.908;8.364;2023-01-30T08:21:06;7.40;78.40
66140;DHT22;52945;51.908;8.364;2023-01-30T08:24:07;7.50;78.50
66140;DHT22;52945;51.908;8.364;2023-01-30T08:27:08;7.60;78.00
66140;DHT22;52945;51.908;8.364;2023-01-30T08:30:10;7.80;77.40
66140;DHT22;52945;51.908;8.364;2023-01-30T08:33:11;7.90;77.00
66140;DHT22;52945;51.908;8.364;2023-01-30T08:36:11;8.00;76.70
66140;DHT22;52945;51.908;8.364;2023-01-30T08:39:12;8.20;76.10
66140;DHT22;52945;51.908;8.364;2023-01-30T08:42:13;8.20;76.40
66140;DHT22;52945;51.908;8.364;2023-01-30T08:45:13;8.50;75.60
66140;DHT22;52945;51.908;8.364;2023-01-30T08:48:14;8.60;74.30
66140;DHT22;52945;51.908;8.364;2023-01-30T08:51:15;8.70;74.10
66140;DHT22;52945;51.908;8.364;2023-01-30T08:54:15;8.70;73.30
66140;DHT22;52945;51.908;8.364;2023-01-30T08:57:16;8.70;73.20
66140;DHT22;52945;51.908;8.364;2023-01-30T09:00:17;8.70;72.70
66140;DHT22;52945;51.908;8.364;2023-01-30T09:03:18;8.70;73.00
66140;DHT22;52945;51.908;8.364;2023-01-30T09:06:18;8.60;73.30
66140;DHT22;52945;51.908;8.364;2023-01-30T09:09:19;8.60;72.70
66140;DHT22;52945;51.908;8.364;2023-01-30T09:12:20;8.50;72.90
66140;DHT22;52945;51.908;8.364;2023-01-30T09:15:20;8.50;72.80
66140;DHT22;52945;51.908;8.364;2023-01-30T09:18:21;8.50;72.20
66140;DHT22;52945;51.908;8.364;2023-01-30T09:21:21;8.40;72.30
66140;DHT22;52945;51.908;8.364;2023-01-30T09:24:22;8.40;72.40
66140;DHT22;52945;51.908;8.364;2023-01-30T09:27:25;8.30;72.70
66140;DHT22;52945;51.908;8.364;2023-01-30T09:30:26;8.20;72.10
66140;DHT22;52945;51.908;8.364;2023-01-30T09:33:27;8.20;72.40
66140;DHT22;52945;51.908;8.364;2023-01-30T09:36:27;8.20;72.60
66140;DHT22;52945;51.908;8.364;2023-01-30T09:39:28;8.20;72.70
66140;DHT22;52945;51.908;8.364;2023-01-30T09:46:15;8.20;72.70
66140;DHT22;52945;51.908;8.364;2023-01-30T09:55:50;8.30;72.40
66140;DHT22;52945;51.908;8.364;2023-01-30T09:58:56;8.20;72.10
66140;DHT22;52945;51.908;8.364;2023-01-30T10:02:17;8.20;70.80
66140;DHT22;52945;51.908;8.364;2023-01-30T10:05:28;8.20;70.40
66140;DHT22;52945;51.908;8.364;2023-01-30T10:08:55;8.20;70.50
66140;DHT22;52945;51.908;8.364;2023-01-30T10:12:28;8.20;70.50
66140;DHT22;52945;51.908;8.364;2023-01-30T10:15:57;8.30;71.10
66140;DHT22;52945;51.908;8.364;2023-01-30T10:28:40;8.20;70.40
66140;DHT22;52945;51.908;8.364;2023-01-30T10:31:55;8.20;69.50
66140;DHT22;52945;51.908;8.364;2023-01-30T10:35:05;8.30;69.40
66140;DHT22;52945;51.908;8.364;2023-01-30T10:41:34;8.40;69.70
66140;DHT22;52945;51.908;8.364;2023-01-30T10:44:37;8.50;69.90
66140;DHT22;52945;51.908;8.364;2023-01-30T10:51:09;8.60;68.70
66140;DHT22;52945;51.908;8.364;2023-01-30T10:54:35;8.60;68.40
66140;DHT22;52945;51.908;8.364;2023-01-30T10:57:52;8.60;68.40
66140;DHT22;52945;51.908;8.364;2023-01-30T11:01:00;8.60;68.30
66140;DHT22;52945;51.908;8.364;2023-01-30T11:04:02;8.50;67.20
66140;DHT22;52945;51.908;8.364;2023-01-30T11:07:05;8.50;67.90
66140;DHT22;52945;51.908;8.364;2023-01-30T11:10:15;8.60;67.40
66140;DHT22;52945;51.908;8.364;2023-01-30T11:13:21;8.60;67.00
66140;DHT22;52945;51.908;8.364;2023-01-30T11:16:26;8.50;66.50
66140;DHT22;52945;51.908;8.364;2023-01-30T11:19:34;8.60;67.40
66140;DHT22;52945;51.908;8.364;2023-01-30T11:22:36;8.60;67.20
66140;DHT22;52945;51.908;8.364;2023-01-30T11:25:49;8.60;67.20
66140;DHT22;52945;51.908;8.364;2023-01-30T11:28:50;8.70;67.40
66140;DHT22;52945;51.908;8.364;2023-01-30T11:31:51;8.70;67.30
66140;DHT22;52945;51.908;8.364;2023-01-30T11:35:19;8.60;66.60
66140;DHT22;52945;51.908;8.364;2023-01-30T11:38:25;8.70;66.60
66140;DHT22;52945;51.908;8.364;2023-01-30T11:41:27;8.70;67.00
66140;DHT22;52945;51.908;8.364;2023-01-30T11:44:28;8.70;67.00
66140;DHT22;52945;51.908;8.364;2023-01-30T11:47:30;8.70;66.70
66140;DHT22;52945;51.908;8.364;2023-01-30T11:50:39;8.60;66.80
66140;DHT22;52945;51.908;8.364;2023-01-30T11:53:47;8.80;66.80
66140;DHT22;52945;51.908;8.364;2023-01-30T11:56:53;8.90;66.30
66140;DHT22;52945;51.908;8.364;2023-01-30T11:59:58;9.00;66.30
66140;DHT22;52945;51.908;8.364;2023-01-30T12:03:04;9.00;66.20
66140;DHT22;52945;51.908;8.364;2023-01-30T12:06:05;9.10;65.80
66140;DHT22;52945;51.908;8.364;2023-01-30T12:09:06;9.10;65.40
66140;DHT22;52945;51.908;8.364;2023-01-30T12:12:30;9.20;65.70
66140;DHT22;52945;51.908;8.364;2023-01-30T12:15:33;9.20;65.00
66140;DHT22;52945;51.908;8.364;2023-01-30T12:18:39;9.20;65.10
66140;DHT22;52945;51.908;8.364;2023-01-30T12:21:47;9.20;64.80
66140;DHT22;52945;51.908;8.364;2023-01-30T12:28:02;9.20;64.00
66140;DHT22;52945;51.908;8.364;2023-01-30T12:31:15;9.40;64.50
66140;DHT22;52945;51.908;8.364;2023-01-30T12:34:18;9.40;63.40
66140;DHT22;52945;51.908;8.364;2023-01-30T12:43:45;9.80;61.50
66140;DHT22;52945;51.908;8.364;2023-01-30T12:47:45;9.80;61.20
66140;DHT22;52945;51.908;8.364;2023-01-30T12:54:16;9.70;61.90
66140;DHT22;52945;51.908;8.364;2023-01-30T12:57:54;9.70;62.20
66140;DHT22;52945;51.908;8.364;2023-01-30T13:01:12;9.70;61.20
66140;DHT22;52945;51.908;8.364;2023-01-30T13:18:05;9.50;63.70
66140;DHT22;52945;51.908;8.364;2023-01-30T13:21:11;9.50;65.00
66140;DHT22;52945;51.908;8.364;2023-01-30T13:24:23;9.40;65.90
66140;DHT22;52945;51.908;8.364;2023-01-30T13:27:26;9.30;65.10
66140;DHT22;52945;51.908;8.364;2023-01-30T13:30:28;9.30;65.00
66140;DHT22;52945;51.908;8.364;2023-01-30T13:33:34;9.30;65.60
66140;DHT22;52945;51.908;8.364;2023-01-30T13:36:41;9.40;65.70
66140;DHT22;52945;51.908;8.364;2023-01-30T13:40:10;9.30;66.10
66140;DHT22;52945;51.908;8.364;2023-01-30T13:46:29;9.00;67.80
66140;DHT22;52945;51.908;8.364;2023-01-30T13:49:51;8.90;68.00
66140;DHT22;52945;51.908;8.364;2023-01-30T13:53:29;8.80;67.70
66140;DHT22;52945;51.908;8.364;2023-01-30T13:59:48;8.60;67.50
66140;DHT22;52945;51.908;8.364;2023-01-30T14:03:14;8.60;67.30
66140;DHT22;52945;51.908;8.364;2023-01-30T14:06:32;8.60;67.00
66140;DHT22;52945;51.908;8.364;2023-01-30T14:09:33;8.60;66.80
66140;DHT22;52945;51.908;8.364;2023-01-30T14:12:39;8.40;66.20
66140;DHT22;52945;51.908;8.364;2023-01-30T14:15:53;8.30;66.10
66140;DHT22;52945;51.908;8.364;2023-01-30T14:18:54;8.30;65.80
66140;DHT22;52945;51.908;8.364;2023-01-30T14:21:56;8.40;65.60
66140;DHT22;52945;51.908;8.364;2023-01-30T14:31:47;8.60;64.00
66140;DHT22;52945;51.908;8.364;2023-01-30T14:38:07;8.60;63.40
66140;DHT22;52945;51.908;8.364;2023-01-30T14:41:26;8.70;63.40
66140;DHT22;52945;51.908;8.364;2023-01-30T14:44:56;8.70;64.20
66140;DHT22;52945;51.908;8.364;2023-01-30T14:54:42;8.80;65.80
66140;DHT22;52945;51.908;8.364;2023-01-30T14:57:53;8.80;65.90
66140;DHT22;52945;51.908;8.364;2023-01-30T15:00:58;8.80;66.30
66140;DHT22;52945;51.908;8.364;2023-01-30T15:03:59;8.70;66.60
66140;DHT22;52945;51.908;8.364;2023-01-30T15:07:06;8.70;67.30
66140;DHT22;52945;51.908;8.364;2023-01-30T15:17:02;8.70;67.80
66140;DHT22;52945;51.908;8.364;2023-01-30T15:30:08;8.60;68.30
66140;DHT22;52945;51.908;8.364;2023-01-30T15:33:18;8.50;68.60
66140;DHT22;52945;51.908;8.364;2023-01-30T15:36:37;8.60;68.10
66140;DHT22;52945;51.908;8.364;2023-01-30T15:39:38;8.60;68.20
66140;DHT22;52945;51.908;8.364;2023-01-30T15:43:05;8.60;68.00
66140;DHT22;52945;51.908;8.364;2023-01-30T15:46:16;8.60;67.90
66140;DHT22;52945;51.908;8.364;2023-01-30T15:49:28;8.60;67.70
66140;DHT22;52945;51.908;8.364;2023-01-30T15:52:42;8.60;67.60
66140;DHT22;52945;51.908;8.364;2023-01-30T15:55:50;8.60;67.60
66140;DHT22;52945;51.908;8.364;2023-01-30T15:58:52;8.60;67.60
66140;DHT22;52945;51.908;8.364;2023-01-30T16:02:15;8.50;67.50
66140;DHT22;52945;51.908;8.364;2023-01-30T16:05:20;8.50;67.50
66140;DHT22;52945;51.908;8.364;2023-01-30T16:08:26;8.60;67.50
66140;DHT22;52945;51.908;8.364;2023-01-30T16:11:53;8.60;67.80
66140;DHT22;52945;51.908;8.364;2023-01-30T16:14:54;8.50;67.80
66140;DHT22;52945;51.908;8.364;2023-01-30T16:18:01;8.50;67.60
66140;DHT22;52945;51.908;8.364;2023-01-30T16:21:14;8.50;67.80
66140;DHT22;52945;51.908;8.364;2023-01-30T16:24:19;8.60;68.00
66140;DHT22;52945;51.908;8.364;2023-01-30T16:27:29;8.50;68.10
66140;DHT22;52945;51.908;8.364;2023-01-30T16:30:30;8.50;68.20
66140;DHT22;52945;51.908;8.364;2023-01-30T16:33:30;8.50;68.30
66140;DHT22;52945;51.908;8.364;2023-01-30T16:36:40;8.60;68.50
66140;DHT22;52945;51.908;8.364;2023-01-30T16:39:41;8.50;68.30
66140;DHT22;52945;51.908;8.364;2023-01-30T16:42:59;8.50;68.10
66140;DHT22;52945;51.908;8.364;2023-01-30T16:46:43;8.50;68.30
66140;DHT22;52945;51.908;8.364;2023-01-30T16:49:46;8.50;68.20
66140;DHT22;52945;51.908;8.364;2023-01-30T16:52:52;8.60;68.00
66140;DHT22;52945;51.908;8.364;2023-01-30T16:56:00;8.50;68.10
66140;DHT22;52945;51.908;8.364;2023-01-30T16:59:02;8.50;68.20
66140;DHT22;52945;51.908;8.364;2023-01-30T17:02:04;8.50;68.00
66140;DHT22;52945;51.908;8.364;2023-01-30T17:05:26;8.60;68.00
66140;DHT22;52945;51.908;8.364;2023-01-30T17:11:42;8.60;67.80
66140;DHT22;52945;51.908;8.364;2023-01-30T17:14:42;8.50;67.30
66140;DHT22;52945;51.908;8.364;2023-01-30T17:17:43;8.50;67.20
66140;DHT22;52945;51.908;8.364;2023-01-30T17:20:44;8.60;67.20
66140;DHT22;52945;51.908;8.364;2023-01-30T17:23:53;8.50;67.10
66140;DHT22;52945;51.908;8.364;2023-01-30T17:27:01;8.50;66.70
66140;DHT22;52945;51.908;8.364;2023-01-30T17:30:04;8.60;66.70
66140;DHT22;52945;51.908;8.364;2023-01-30T17:33:05;8.60;66.60
66140;DHT22;52945;51.908;8.364;2023-01-30T17:36:13;8.60;66.40
66140;DHT22;52945;51.908;8.364;2023-01-30T17:39:17;8.60;66.40
66140;DHT22;52945;51.908;8.364;2023-01-30T17:42:17;8.60;66.40
66140;DHT22;52945;51.908;8.364;2023-01-30T17:45:20;8.60;66.30
66140;DHT22;52945;51.908;8.364;2023-01-30T17:48:20;8.60;66.30
66140;DHT22;52945;51.908;8.364;2023-01-30T17:51:21;8.60;66.40
66140;DHT22;52945;51.908;8.364;2023-01-30T17:54:22;8.60;66.50
66140;DHT22;52945;51.908;8.364;2023-01-30T17:57:24;8.60;66.80
66140;DHT22;52945;51.908;8.364;2023-01-30T18:00:25;8.70;67.60
66140;DHT22;52945;51.908;8.364;2023-01-30T18:03:25;8.60;68.60
66140;DHT22;52945;51.908;8.364;2023-01-30T18:06:26;8.60;68.70
66140;DHT22;52945;51.908;8.364;2023-01-30T18:09:29;8.60;69.20
66140;DHT22;52945;51.908;8.364;2023-01-30T18:12:30;8.60;69.20
66140;DHT22;52945;51.908;8.364;2023-01-30T18:15:31;8.50;68.70
66140;DHT22;52945;51.908;8.364;2023-01-30T18:18:31;8.50;69.00
66140;DHT22;52945;51.908;8.364;2023-01-30T18:21:34;8.50;69.30
66140;DHT22;52945;51.908;8.364;2023-01-30T18:24:34;8.40;69.40
66140;DHT22;52945;51.908;8.364;2023-01-30T18:27:35;8.40;69.40
66140;DHT22;52945;51.908;8.364;2023-01-30T18:30:36;8.30;69.10
66140;DHT22;52945;51.908;8.364;2023-01-30T18:33:37;8.30;68.90
66140;DHT22;52945;51.908;8.364;2023-01-30T18:36:40;8.40;68.50
66140;DHT22;52945;51.908;8.364;2023-01-30T18:39:40;8.30;68.10
66140;DHT22;52945;51.908;8.364;2023-01-30T18:42:41;8.20;67.60
66140;DHT22;52945;51.908;8.364;2023-01-30T18:45:42;8.20;67.90
66140;DHT22;52945;51.908;8.364;2023-01-30T18:48:43;8.20;67.80
66140;DHT22;52945;51.908;8.364;2023-01-30T18:51:44;8.10;67.90
66140;DHT22;52945;51.908;8.364;2023-01-30T18:54:45;8.20;68.20
66140;DHT22;52945;51.908;8.364;2023-01-30T18:57:45;8.10;68.40
66140;DHT22;52945;51.908;8.364;2023-01-30T19:00:46;8.20;68.50
66140;DHT22;52945;51.908;8.364;2023-01-30T19:03:47;8.10;68.80
66140;DHT22;52945;51.908;8.364;2023-01-30T19:06:47;8.10;69.10
66140;DHT22;52945;51.908;8.364;2023-01-30T19:09:48;8.10;69.40
66140;DHT22;52945;51.908;8.364;2023-01-30T19:12:48;8.00;69.90
66140;DHT22;52945;51.908;8.364;2023-01-30T19:16:08;8.10;70.10
66140;DHT22;52945;51.908;8.364;2023-01-30T19:19:09;8.10;70.50
66140;DHT22;52945;51.908;8.364;2023-01-30T19:22:10;8.10;70.60
66140;DHT22;52945;51.908;8.364;2023-01-30T19:25:10;8.00;71.10
66140;DHT22;52945;51.908;8.364;2023-01-30T19:28:11;8.00;71.30
66140;DHT22;52945;51.908;8.364;2023-01-30T19:31:17;8.00;71.40
66140;DHT22;52945;51.908;8.364;2023-01-30T19:34:18;8.10;71.30
66140;DHT22;52945;51.908;8.364;2023-01-30T19:37:18;8.10;71.20
66140;DHT22;52945;51.908;8.364;2023-01-30T19:40:19;8.10;71.10
66140;DHT22;52945;51.908;8.364;2023-01-30T19:43:20;8.10;71.10
66140;DHT22;52945;51.908;8.364;2023-01-30T19:46:20;8.00;70.70
66140;DHT22;52945;51.908;8.364;2023-01-30T19:49:21;8.10;70.50
66140;DHT22;52945;51.908;8.364;2023-01-30T19:52:22;8.10;70.60
66140;DHT22;52945;51.908;8.364;2023-01-30T19:55:22;8.00;70.30
66140;DHT22;52945;51.908;8.364;2023-01-30T19:58:25;8.10;70.30
66140;DHT22;52945;51.908;8.364;2023-01-30T20:01:28;8.10;70.10
66140;DHT22;52945;51.908;8.364;2023-01-30T20:04:29;8.10;70.00
66140;DHT22;52945;51.908;8.364;2023-01-30T20:07:34;8.00;69.30
66140;DHT22;52945;51.908;8.364;2023-01-30T20:10:35;8.10;69.40
66140;DHT22;52945;51.908;8.364;2023-01-30T20:13:37;8.10;69.40
66140;DHT22;52945;51.908;8.364;2023-01-30T20:16:38;8.10;69.20
66140;DHT22;52945;51.908;8.364;2023-01-30T20:19:38;8.10;69.40
66140;DHT22;52945;51.908;8.364;2023-01-30T20:22:39;8.00;69.20
66140;DHT22;52945;51.908;8.364;2023-01-30T20:25:40;8.10;69.20
66140;DHT22;52945;51.908;8.364;2023-01-30T20:28:40;8.00;69.10
66140;DHT22;52945;51.908;8.364;2023-01-30T20:31:41;8.00;69.20
66140;DHT22;52945;51.908;8.364;2023-01-30T20:34:42;8.00;69.30
66140;DHT22;52945;51.908;8.364;2023-01-30T20:37:42;8.00;69.40
66140;DHT22;52945;51.908;8.364;2023-01-30T20:40:43;8.00;69.40
66140;DHT22;52945;51.908;8.364;2023-01-30T20:43:48;8.00;69.20
66140;DHT22;52945;51.908;8.364;2023-01-30T20:46:50;8.00;69.10
66140;DHT22;52945;51.908;8.364;2023-01-30T20:49:51;7.90;69.10
66140;DHT22;52945;51.908;8.364;2023-01-30T20:52:51;8.00;69.10
66140;DHT22;52945;51.908;8.364;2023-01-30T20:55:56;8.00;69.00
66140;DHT22;52945;51.908;8.364;2023-01-30T20:58:57;7.90;68.80
66140;DHT22;52945;51.908;8.364;2023-01-30T21:01:57;8.00;69.00
66140;DHT22;52945;51.908;8.364;2023-01-30T21:04:58;7.90;68.80
66140;DHT22;52945;51.908;8.364;2023-01-30T21:07:58;7.90;68.90
66140;DHT22;52945;51.908;8.364;2023-01-30T21:11:17;7.80;68.90
66140;DHT22;52945;51.908;8.364;2023-01-30T21:14:18;7.90;69.00
66140;DHT22;52945;51.908;8.364;2023-01-30T21:17:19;7.80;68.80
66140;DHT22;52945;51.908;8.364;2023-01-30T21:20:19;7.80;68.80
66140;DHT22;52945;51.908;8.364;2023-01-30T21:23:20;7.70;69.10
66140;DHT22;52945;51.908;8.364;2023-01-30T21:26:22;7.70;69.10
66140;DHT22;52945;51.908;8.364;2023-01-30T21:29:25;7.60;69.40
66140;DHT22;52945;51.908;8.364;2023-01-30T21:32:26;7.70;69.40
66140;DHT22;52945;51.908;8.364;2023-01-30T21:35:26;7.70;69.40
66140;DHT22;52945;51.908;8.364;2023-01-30T21:38:27;7.60;69.60
66140;DHT22;52945;51.908;8.364;2023-01-30T21:41:47;7.70;69.60
66140;DHT22;52945;51.908;8.364;2023-01-30T21:45:07;7.60;69.70
66140;DHT22;52945;51.908;8.364;2023-01-30T21:48:07;7.60;69.70
66140;DHT22;52945;51.908;8.364;2023-01-30T21:51:10;7.60;69.90